Time;durP1;ratioP1;P1;durP2;ratioP2;P2;SDS_P1;SDS_P2;PMS_P1;PMS_P2;Temp;Humidity;BMP_temperature;BMP_pressure;BME280_temperature;BME280_humidity;BME280_pressure;Samples;Min_cycle;Max_cycle;Signal;HPM_P1;HPM_P2
2022/08/05 00:01:34;;;;;;;;;;;;;;;20.28;74.16;101470.81;5096290;28;19965;-43
2022/08/05 00:03:59;;;;;;;;;;;;;;;20.28;74.31;101473.56;5096801;28;19977;-37
2022/08/05 00:06:24;;;;;;;;;;;;;;;20.29;76.23;101470.53;5096329;28;19957;-37
2022/08/05 00:08:49;;;;;;;;;;;;;;;20.21;75.84;101471.13;5095855;28;20330;-36
2022/08/05 00:11:15;;;;;;;;;;;;;;;20.23;74.85;101479.88;5096138;28;19919;-36
2022/08/05 00:13:41;;;;;;;;;;;;;;;20.26;74.85;101479.34;5096237;28;19939;-36
2022/08/05 00:16:08;;;;;;;;;;;;;;;20.27;75.30;101483.72;5096968;28;19978;-36
2022/08/05 00:18:33;;;;;;;;;;;;;;;20.26;75.43;101471.09;5096333;28;20251;-36
2022/08/05 00:20:58;;;;;;;;;;;;;;;20.24;75.59;101470.53;5095865;28;19916;-36
2022/08/05 00:23:24;;;;;;;;;;;;;;;20.24;75.16;101469.72;5095763;28;19923;-36
2022/08/05 00:25:49;;;;;;;;;;;;;;;20.25;75.93;101480.44;5095754;28;19916;-36
2022/08/05 00:28:15;;;;;;;;;;;;;;;20.24;75.82;101478.78;5095712;28;19931;-36
2022/08/05 00:30:41;;;;;;;;;;;;;;;20.24;75.46;101475.22;5095971;28;20252;-36
2022/08/05 00:33:06;;;;;;;;;;;;;;;20.24;75.42;101472.47;5095592;28;20355;-37
2022/08/05 00:35:32;;;;;;;;;;;;;;;20.23;75.73;101460.66;5095616;28;19918;-36
2022/08/05 00:37:57;;;;;;;;;;;;;;;20.23;75.41;101471.66;5095725;28;19912;-37
2022/08/05 00:40:23;;;;;;;;;;;;;;;20.22;75.47;101483.75;5095449;28;19962;-36
2022/08/05 00:42:48;;;;;;;;;;;;;;;20.22;76.29;101488.41;5095099;28;19912;-36
2022/08/05 00:45:13;;;;;;;;;;;;;;;20.23;75.75;101490.88;5095320;28;20320;-37
2022/08/05 00:47:39;;;;;;;;;;;;;;;20.24;76.21;101491.69;5095315;28;19916;-36
2022/08/05 00:50:05;;;;;;;;;;;;;;;20.24;75.57;101488.94;5095330;28;19965;-36
2022/08/05 00:52:30;;;;;;;;;;;;;;;20.24;75.83;101484.28;5095255;28;20022;-36
2022/08/05 00:54:55;;;;;;;;;;;;;;;20.24;75.72;101483.44;5096266;28;19938;-36
2022/08/05 00:57:20;;;;;;;;;;;;;;;20.24;75.87;101487.03;5095153;28;20477;-36
2022/08/05 00:59:47;;;;;;;;;;;;;;;20.24;76.28;101489.75;5095480;28;19923;-36
2022/08/05 01:02:12;;;;;;;;;;;;;;;20.23;75.81;101485.38;5095282;28;19916;-36
2022/08/05 01:04:37;;;;;;;;;;;;;;;20.25;75.79;101485.09;5094353;28;19919;-36
2022/08/05 01:07:02;;;;;;;;;;;;;;;20.24;76.28;101489.75;5094992;28;19912;-37
2022/08/05 01:09:28;;;;;;;;;;;;;;;20.22;78.66;101496.66;5095483;28;19923;-36
2022/08/05 01:11:57;;;;;;;;;;;;;;;20.19;79.43;101495.28;5094638;28;19912;-36
2022/08/05 01:14:28;;;;;;;;;;;;;;;20.13;77.54;101498.31;5095682;28;19912;-36
2022/08/05 01:16:58;;;;;;;;;;;;;;;20.12;77.78;101502.19;5095298;28;20245;-36
2022/08/05 01:19:33;;;;;;;;;;;;;;;20.13;77.00;101514.81;5095165;28;20344;-37
2022/08/05 01:22:11;;;;;;;;;;;;;;;20.13;77.17;101506.56;5095497;28;19923;-36
2022/08/05 01:24:45;;;;;;;;;;;;;;;20.10;80.67;101505.19;5094279;28;19911;-37
2022/08/05 01:27:10;;;;;;;;;;;;;;;20.06;78.67;101517.84;5094261;28;19912;-36
2022/08/05 01:29:39;;;;;;;;;;;;;;;20.07;78.32;101527.72;5094496;28;19957;-36
2022/08/05 01:32:06;;;;;;;;;;;;;;;20.09;78.19;101527.44;5094975;28;19919;-36
2022/08/05 01:34:35;;;;;;;;;;;;;;;20.09;77.44;101535.66;5094357;28;19912;-37
2022/08/05 01:37:11;;;;;;;;;;;;;;;20.10;77.58;101543.63;5094599;28;20419;-36
2022/08/05 01:39:37;;;;;;;;;;;;;;;20.11;77.22;101544.47;5094292;28;19941;-37
2022/08/05 01:42:04;;;;;;;;;;;;;;;20.12;77.64;101546.94;5094234;28;19922;-36
2022/08/05 01:44:30;;;;;;;;;;;;;;;20.13;77.49;101542.25;5093736;28;19927;-35
2022/08/05 01:46:56;;;;;;;;;;;;;;;20.16;77.36;101541.72;5094217;28;19954;-35
2022/08/05 01:49:22;;;;;;;;;;;;;;;20.12;78.71;101541.44;5094144;28;19912;-35
2022/08/05 01:51:49;;;;;;;;;;;;;;;20.02;78.65;101530.47;5093848;28;19919;-36
2022/08/05 01:54:14;;;;;;;;;;;;;;;20.04;78.14;101533.75;5093745;28;19912;-37
2022/08/05 01:56:42;;;;;;;;;;;;;;;20.05;77.93;101533.47;5094472;28;20039;-36
2022/08/05 01:59:09;;;;;;;;;;;;;;;20.02;78.72;101531.31;5093541;28;19926;-36
2022/08/05 02:01:36;;;;;;;;;;;;;;;19.99;77.80;101522.78;5093699;28;19915;-36
2022/08/05 02:04:02;;;;;;;;;;;;;;;19.99;77.76;101514.56;5093509;28;20037;-36
2022/08/05 02:06:28;;;;;;;;;;;;;;;19.97;78.18;101514.84;5093790;28;19963;-36
2022/08/05 02:08:53;;;;;;;;;;;;;;;19.96;78.17;101502.22;5094508;28;19993;-36
2022/08/05 02:11:19;;;;;;;;;;;;;;;19.94;78.17;101498.91;5093556;28;19916;-36
2022/08/05 02:13:44;;;;;;;;;;;;;;;19.93;77.93;101500.03;5093393;28;20443;-36
2022/08/05 02:16:19;;;;;;;;;;;;;;;19.92;77.92;101505.81;5093285;28;19948;-36
2022/08/05 02:18:51;;;;;;;;;;;;;;;19.91;77.93;101498.63;5094389;28;19989;-36
2022/08/05 02:21:23;;;;;;;;;;;;;;;19.91;79.71;101490.41;5093672;28;20363;-36
2022/08/05 02:23:51;;;;;;;;;;;;;;;19.83;79.88;101471.78;5093490;28;19919;-37
2022/08/05 02:26:22;;;;;;;;;;;;;;;19.75;78.80;101498.66;5093550;28;19916;-37
2022/08/05 02:28:47;;;;;;;;;;;;;;;19.74;79.26;101509.94;5093990;28;19919;-37
2022/08/05 02:31:18;;;;;;;;;;;;;;;19.76;79.90;101499.50;5093812;28;20292;-37
2022/08/05 02:33:47;;;;;;;;;;;;;;;19.73;79.38;101494.56;5093512;28;19912;-37
2022/08/05 02:36:15;;;;;;;;;;;;;;;19.70;79.23;101506.09;5093818;28;19912;-37
2022/08/05 02:38:40;;;;;;;;;;;;;;;19.70;79.72;101509.66;5093390;28;19955;-37
2022/08/05 02:41:07;;;;;;;;;;;;;;;19.65;79.61;101526.13;5093703;28;19912;-37
2022/08/05 02:43:35;;;;;;;;;;;;;;;19.64;79.37;101529.97;5093341;28;19912;-37
2022/08/05 02:46:00;;;;;;;;;;;;;;;19.62;79.43;101536.81;5093718;28;19912;-37
2022/08/05 02:48:26;;;;;;;;;;;;;;;19.63;78.67;101533.00;5093119;28;19956;-37
2022/08/05 02:50:52;;;;;;;;;;;;;;;19.64;79.20;101524.47;5093105;28;19912;-37
2022/08/05 02:53:19;;;;;;;;;;;;;;;19.63;78.61;101530.25;5092996;28;20381;-37
2022/08/05 02:55:48;;;;;;;;;;;;;;;19.62;78.68;101526.69;5093617;28;20311;-37
2022/08/05 02:58:15;;;;;;;;;;;;;;;19.62;79.07;101520.34;5094040;28;20259;-37
2022/08/05 03:00:41;;;;;;;;;;;;;;;19.63;80.03;101513.78;5093197;28;19920;-37
2022/08/05 03:03:06;;;;;;;;;;;;;;;19.58;79.16;101506.34;5092860;28;19974;-36
2022/08/05 03:05:32;;;;;;;;;;;;;;;19.56;80.28;101495.63;5093139;28;19922;-36
2022/08/05 03:07:57;;;;;;;;;;;;;;;19.53;79.41;101484.41;5093141;28;19912;-36
2022/08/05 03:10:24;;;;;;;;;;;;;;;19.54;79.21;101491.53;5092867;28;19912;-36
2022/08/05 03:12:49;;;;;;;;;;;;;;;19.51;79.35;101494.81;5093119;28;20018;-36
2022/08/05 03:15:15;;;;;;;;;;;;;;;19.51;79.80;101494.81;5093393;28;19962;-36
2022/08/05 03:17:40;;;;;;;;;;;;;;;19.52;79.44;101499.19;5093054;28;19912;-37
2022/08/05 03:20:05;;;;;;;;;;;;;;;19.52;79.36;101499.19;5093019;28;20380;-36
2022/08/05 03:22:31;;;;;;;;;;;;;;;19.52;79.43;101511.03;5092951;28;20060;-36
2022/08/05 03:24:57;;;;;;;;;;;;;;;19.52;79.15;101526.63;5093172;28;19916;-36
2022/08/05 03:27:23;;;;;;;;;;;;;;;19.52;79.31;101526.63;5093865;28;20379;-36
2022/08/05 03:29:48;;;;;;;;;;;;;;;19.51;78.95;101525.81;5097363;28;19928;-36
2022/08/05 03:32:14;;;;;;;;;;;;;;;19.47;79.50;101524.75;5096558;28;19912;-36
2022/08/05 03:34:40;;;;;;;;;;;;;;;19.46;79.16;101533.22;5096969;28;19931;-36
2022/08/05 03:37:06;;;;;;;;;;;;;;;19.46;79.20;101541.44;5096946;28;20007;-36
2022/08/05 03:39:31;;;;;;;;;;;;;;;19.49;78.69;101543.66;5097433;28;19951;-36
2022/08/05 03:41:57;;;;;;;;;;;;;;;19.50;79.01;101548.84;5096927;28;19919;-36
2022/08/05 03:44:22;;;;;;;;;;;;;;;19.48;82.00;101547.50;5096765;28;19912;-36
2022/08/05 03:46:47;;;;;;;;;;;;;;;19.44;80.37;101543.66;5096897;28;19912;-36
2022/08/05 03:49:13;;;;;;;;;;;;;;;19.44;79.45;101530.75;5095158;28;19938;-36
2022/08/05 03:51:41;;;;;;;;;;;;;;;19.44;80.29;101527.19;5096642;28;19916;-36
2022/08/05 03:54:13;;;;;;;;;;;;;;;19.43;79.60;101522.81;5096058;28;19912;-36
2022/08/05 03:56:40;;;;;;;;;;;;;;;19.43;79.25;101531.06;5096330;28;19959;-36
2022/08/05 03:59:12;;;;;;;;;;;;;;;19.42;79.27;101518.41;5096197;28;19955;-36
2022/08/05 04:01:39;;;;;;;;;;;;;;;19.40;79.70;101513.22;5096578;28;19916;-36
2022/08/05 04:04:06;;;;;;;;;;;;;;;19.39;79.80;101499.78;5096829;28;19938;-36
2022/08/05 04:06:32;;;;;;;;;;;;;;;19.37;79.26;101488.25;5096090;28;19919;-36
2022/08/05 04:08:58;;;;;;;;;;;;;;;19.36;79.39;101503.06;5096577;28;19955;-36
2022/08/05 04:11:23;;;;;;;;;;;;;;;19.34;79.64;101505.25;5095533;28;20368;-36
2022/08/05 04:13:49;;;;;;;;;;;;;;;19.31;79.30;101506.63;5095961;28;19959;-36
2022/08/05 04:16:14;;;;;;;;;;;;;;;19.28;79.11;101499.78;5096426;28;19970;-36
2022/08/05 04:18:39;;;;;;;;;;;;;;;19.27;79.48;101502.78;5095916;28;19989;-36
2022/08/05 04:21:05;;;;;;;;;;;;;;;19.25;79.92;101511.28;5095842;28;19912;-36
2022/08/05 04:23:31;;;;;;;;;;;;;;;19.22;79.76;101519.22;5095385;28;19912;-36
2022/08/05 04:25:56;;;;;;;;;;;;;;;19.18;79.74;101521.69;5096013;28;19916;-36
2022/08/05 04:28:22;;;;;;;;;;;;;;;19.15;79.58;101519.50;5095987;28;20374;-36
2022/08/05 04:30:47;;;;;;;;;;;;;;;19.15;79.76;101514.00;5095543;28;19916;-36
2022/08/05 04:33:13;;;;;;;;;;;;;;;19.15;79.62;101519.50;5095296;28;19912;-36
2022/08/05 04:35:38;;;;;;;;;;;;;;;19.15;79.72;101532.38;5095931;28;19959;-36
2022/08/05 04:38:04;;;;;;;;;;;;;;;19.14;79.71;101537.03;5095551;28;20329;-36
2022/08/05 04:40:32;;;;;;;;;;;;;;;19.13;79.43;101535.41;5095418;28;20369;-36
2022/08/05 04:42:57;;;;;;;;;;;;;;;19.12;79.75;101539.22;5095370;28;19912;-36
2022/08/05 04:45:24;;;;;;;;;;;;;;;19.13;79.66;101535.41;5095659;28;19912;-36
2022/08/05 04:47:49;;;;;;;;;;;;;;;19.13;79.81;101538.16;5095302;28;19916;-36
2022/08/05 04:50:15;;;;;;;;;;;;;;;19.15;79.93;101540.59;5095273;28;19912;-37
2022/08/05 04:52:40;;;;;;;;;;;;;;;19.15;79.68;101538.69;5095466;28;19912;-36
2022/08/05 04:55:05;;;;;;;;;;;;;;;19.15;79.95;101532.38;5095749;28;20316;-36
2022/08/05 04:57:30;;;;;;;;;;;;;;;19.14;80.04;101544.44;5095863;28;20352;-36
2022/08/05 04:59:56;;;;;;;;;;;;;;;19.15;79.87;101537.88;5095518;28;19919;-36
2022/08/05 05:02:21;;;;;;;;;;;;;;;19.15;81.55;101541.44;5094994;28;20377;-36
2022/08/05 05:04:46;;;;;;;;;;;;;;;19.08;82.28;101537.28;5095232;28;19966;-36
2022/08/05 05:07:12;;;;;;;;;;;;;;;18.99;81.11;101534.28;5094657;28;19916;-36
2022/08/05 05:09:37;;;;;;;;;;;;;;;19.00;81.09;101531.25;5095657;28;19919;-36
2022/08/05 05:12:02;;;;;;;;;;;;;;;19.03;81.00;101532.63;5094847;28;19916;-36
2022/08/05 05:14:27;;;;;;;;;;;;;;;19.04;80.72;101531.53;5095183;28;19916;-36
2022/08/05 05:16:53;;;;;;;;;;;;;;;19.05;81.08;101527.69;5095541;28;19965;-36
2022/08/05 05:19:18;;;;;;;;;;;;;;;19.08;80.78;101532.66;5094784;28;19922;-36
2022/08/05 05:21:43;;;;;;;;;;;;;;;19.10;81.00;101541.41;5095291;28;19912;-36
2022/08/05 05:24:08;;;;;;;;;;;;;;;19.11;81.83;101537.56;5094592;28;20363;-36
2022/08/05 05:26:33;;;;;;;;;;;;;;;19.14;80.87;101544.44;5094694;28;20393;-36
2022/08/05 05:28:59;;;;;;;;;;;;;;;19.12;82.68;101544.69;5095079;28;19919;-36
2022/08/05 05:31:24;;;;;;;;;;;;;;;19.06;82.32;101545.78;5094791;28;20009;-36
2022/08/05 05:33:49;;;;;;;;;;;;;;;19.04;82.90;101548.00;5094186;28;20390;-36
2022/08/05 05:36:14;;;;;;;;;;;;;;;18.98;82.97;101547.16;5094233;28;20368;-36
2022/08/05 05:38:39;;;;;;;;;;;;;;;18.95;83.80;101553.16;5094419;28;19918;-36
2022/08/05 05:41:05;;;;;;;;;;;;;;;18.94;82.47;101553.44;5095351;28;19919;-36
2022/08/05 05:43:30;;;;;;;;;;;;;;;18.94;81.83;101558.94;5094036;28;19912;-36
2022/08/05 05:45:55;;;;;;;;;;;;;;;18.94;81.90;101561.66;5094471;28;19920;-36
2022/08/05 05:48:20;;;;;;;;;;;;;;;18.93;81.63;101560.81;5094156;28;19912;-35
2022/08/05 05:50:45;;;;;;;;;;;;;;;18.95;81.53;101577.84;5093927;28;19912;-36
2022/08/05 05:53:12;;;;;;;;;;;;;;;18.97;81.54;101574.81;5094457;28;20008;-35
2022/08/05 05:55:37;;;;;;;;;;;;;;;18.92;84.68;101580.28;5094568;28;20321;-38
2022/08/05 05:58:02;;;;;;;;;;;;;;;18.88;83.79;101576.41;5093982;28;20010;-36
2022/08/05 06:00:27;;;;;;;;;;;;;;;18.88;82.69;101581.91;5093744;28;20441;-36
2022/08/05 06:02:53;;;;;;;;;;;;;;;18.92;82.25;101588.50;5094097;28;20382;-36
2022/08/05 06:05:19;;;;;;;;;;;;;;;19.00;82.28;101588.00;5093736;28;19915;-36
2022/08/05 06:07:44;;;;;;;;;;;;;;;19.02;84.95;101594.84;5093881;28;19911;-36
2022/08/05 06:10:10;;;;;;;;;;;;;;;18.98;83.81;101592.91;5094270;28;20405;-36
2022/08/05 06:12:36;;;;;;;;;;;;;;;18.94;83.41;101589.91;5093558;28;19911;-36
2022/08/05 06:15:02;;;;;;;;;;;;;;;18.94;84.52;101589.06;5094086;28;19912;-36
2022/08/05 06:17:28;;;;;;;;;;;;;;;18.93;83.13;101590.97;5093721;28;20313;-36
2022/08/05 06:19:53;;;;;;;;;;;;;;;18.97;82.93;101596.75;5093416;28;19994;-36
2022/08/05 06:22:26;;;;;;;;;;;;;;;19.02;82.84;101594.00;5093320;28;19916;-36
2022/08/05 06:24:51;;;;;;;;;;;;;;;19.02;82.96;101597.56;5094171;28;20220;-36
2022/08/05 06:27:17;;;;;;;;;;;;;;;19.01;82.41;101595.13;5093547;28;19912;-36
2022/08/05 06:29:42;;;;;;;;;;;;;;;19.03;83.93;101598.41;5093565;28;19950;-36
2022/08/05 06:32:08;;;;;;;;;;;;;;;18.98;83.95;101584.69;5093308;28;19912;-36
2022/08/05 06:34:33;;;;;;;;;;;;;;;19.09;82.64;101597.34;5093827;28;19977;-36
2022/08/05 06:36:59;;;;;;;;;;;;;;;19.16;83.66;101594.34;5093516;28;19911;-36
2022/08/05 06:39:24;;;;;;;;;;;;;;;19.18;82.99;101598.47;5093967;28;19941;-36
2022/08/05 06:41:50;;;;;;;;;;;;;;;19.27;84.65;101596.00;5093390;28;20317;-36
2022/08/05 06:44:15;;;;;;;;;;;;;;;19.31;83.38;101597.09;5093995;28;19912;-36
2022/08/05 06:46:40;;;;;;;;;;;;;;;19.28;83.31;101603.16;5093842;28;20357;-36
2022/08/05 06:49:05;;;;;;;;;;;;;;;19.32;83.40;101608.91;5093392;28;19957;-36
2022/08/05 06:51:31;;;;;;;;;;;;;;;19.40;83.70;101611.13;5093588;28;19923;-36
2022/08/05 06:54:00;;;;;;;;;;;;;;;19.39;83.86;101613.03;5093315;28;19955;-36
2022/08/05 06:56:27;;;;;;;;;;;;;;;19.45;82.79;101616.59;5094038;28;20319;-36
2022/08/05 06:58:53;;;;;;;;;;;;;;;19.25;83.88;101615.47;5093012;28;19912;-36
2022/08/05 07:01:19;;;;;;;;;;;;;;;19.39;82.68;101614.97;5094446;28;19919;-36
2022/08/05 07:03:44;;;;;;;;;;;;;;;19.44;82.98;101623.19;5096820;28;20026;-36
2022/08/05 07:06:09;;;;;;;;;;;;;;;19.46;83.92;101626.47;5097324;28;20283;-36
2022/08/05 07:08:34;;;;;;;;;;;;;;;19.48;82.93;101627.88;5097285;28;19966;-36
2022/08/05 07:10:59;;;;;;;;;;;;;;;19.53;82.69;101638.03;5097243;28;19957;-36
2022/08/05 07:18:52;;;;;;;;;;;;;;;19.76;82.53;101643.03;5097590;28;19957;-36
2022/08/05 07:21:17;;;;;;;;;;;;;;;19.86;82.08;101649.59;5097355;28;19916;-36
2022/08/05 07:23:43;;;;;;;;;;;;;;;19.89;81.61;101647.13;5097161;28;19912;-36
2022/08/05 07:26:08;;;;;;;;;;;;;;;19.92;81.72;101656.75;5097494;28;20347;-36
2022/08/05 07:28:33;;;;;;;;;;;;;;;19.92;81.52;101659.50;5096810;28;19912;-36
2022/08/05 07:30:58;;;;;;;;;;;;;;;20.00;81.63;101664.44;5097622;28;19916;-36
2022/08/05 07:33:23;;;;;;;;;;;;;;;20.07;80.98;101667.75;5096814;28;20347;-36
2022/08/05 07:35:49;;;;;;;;;;;;;;;20.12;79.69;101659.50;5097026;28;19912;-36
2022/08/05 07:38:15;;;;;;;;;;;;;;;20.09;80.15;101665.53;5096492;28;19912;-36
2022/08/05 07:40:40;;;;;;;;;;;;;;;20.17;80.14;101656.75;5096693;28;19912;-36
2022/08/05 07:43:05;;;;;;;;;;;;;;;20.32;79.85;101664.97;5097049;28;19912;-36
2022/08/05 07:45:31;;;;;;;;;;;;;;;20.48;79.31;101664.97;5097058;28;19912;-36
2022/08/05 07:47:56;;;;;;;;;;;;;;;20.58;78.75;101664.97;5096217;28;20022;-36
2022/08/05 07:50:21;;;;;;;;;;;;;;;20.69;78.52;101669.34;5097258;28;19912;-36
2022/08/05 07:52:47;;;;;;;;;;;;;;;20.85;77.98;101674.78;5096196;28;19912;-36
2022/08/05 07:55:12;;;;;;;;;;;;;;;20.82;76.16;101674.22;5097157;28;19919;-36
2022/08/05 07:57:37;;;;;;;;;;;;;;;20.83;76.34;101675.06;5096092;28;19947;-36
2022/08/05 08:00:06;;;;;;;;;;;;;;;20.82;76.87;101666.00;5095938;28;19967;-36
2022/08/05 08:02:31;;;;;;;;;;;;;;;20.82;75.20;101676.16;5094822;28;19912;-36
2022/08/05 08:04:56;;;;;;;;;;;;;;;20.88;74.96;101679.72;5095836;28;20018;-36
2022/08/05 08:07:22;;;;;;;;;;;;;;;20.90;73.64;101683.03;5094976;28;19912;-36
2022/08/05 08:09:47;;;;;;;;;;;;;;;20.79;70.69;101685.81;5095826;28;19916;-36
2022/08/05 08:12:13;;;;;;;;;;;;;;;20.86;72.80;101690.19;5095256;28;19912;-36
2022/08/05 08:14:39;;;;;;;;;;;;;;;20.97;72.12;101694.53;5094462;28;20292;-36
2022/08/05 08:17:09;;;;;;;;;;;;;;;21.01;71.41;101690.13;5094592;28;20337;-36
2022/08/05 08:19:34;;;;;;;;;;;;;;;20.93;72.57;101690.69;5094834;28;19918;-36
2022/08/05 08:21:59;;;;;;;;;;;;;;;20.91;73.17;101696.47;5094787;28;19912;-36
2022/08/05 08:24:25;;;;;;;;;;;;;;;20.99;73.10;101706.91;5094952;28;20050;-36
2022/08/05 08:26:50;;;;;;;;;;;;;;;21.00;71.70;101704.97;5095078;28;20003;-36
2022/08/05 08:29:15;;;;;;;;;;;;;;;21.12;72.69;101710.97;5095107;28;19912;-36
2022/08/05 08:31:40;;;;;;;;;;;;;;;21.20;71.43;101712.31;5095246;28;19911;-36
2022/08/05 08:34:06;;;;;;;;;;;;;;;21.19;71.61;101716.19;5094811;28;19912;-37
2022/08/05 08:36:31;;;;;;;;;;;;;;;21.19;71.86;101711.50;5095220;28;19960;-36
2022/08/05 08:38:56;;;;;;;;;;;;;;;21.21;71.40;101712.03;5093112;28;19912;-36
2022/08/05 08:41:24;;;;;;;;;;;;;;;21.19;69.88;101718.94;5094640;28;19946;-36
2022/08/05 08:43:49;;;;;;;;;;;;;;;21.25;70.77;101707.63;5094245;28;19938;-36
2022/08/05 08:46:16;;;;;;;;;;;;;;;21.41;70.39;101713.09;5094857;28;20336;-36
2022/08/05 08:48:44;;;;;;;;;;;;;;;21.45;69.81;101726.00;5094478;28;19919;-36
2022/08/05 08:51:09;;;;;;;;;;;;;;;21.46;69.96;101722.13;5094951;28;20395;-37
2022/08/05 08:53:36;;;;;;;;;;;;;;;21.59;70.96;101724.28;5094846;28;19912;-36
2022/08/05 08:56:02;;;;;;;;;;;;;;;21.85;69.84;101732.38;5094645;28;19912;-36
2022/08/05 08:58:28;;;;;;;;;;;;;;;22.00;70.24;101736.94;5094337;28;20304;-36
2022/08/05 09:00:53;;;;;;;;;;;;;;;22.10;69.57;101734.13;5057127;28;1081004;-37
2022/08/05 09:03:19;;;;;;;;;;;;;;;22.14;68.88;101737.97;5095101;28;19916;-35
2022/08/05 09:05:45;;;;;;;;;;;;;;;22.01;66.36;101747.69;5095798;28;19919;-36
2022/08/05 09:08:11;;;;;;;;;;;;;;;21.98;68.41;101751.00;5095205;28;19919;-36
2022/08/05 09:10:39;;;;;;;;;;;;;;;21.85;68.24;101746.94;5095456;28;19912;-36
2022/08/05 09:13:04;;;;;;;;;;;;;;;21.78;68.13;101760.22;5094522;28;20271;-36
2022/08/05 09:15:29;;;;;;;;;;;;;;;21.72;68.65;101761.38;5095077;28;19912;-36
2022/08/05 09:17:54;;;;;;;;;;;;;;;21.62;68.40;101772.44;5095048;28;19916;-36
2022/08/05 09:20:20;;;;;;;;;;;;;;;21.44;68.86;101775.81;5095070;28;19959;-36
2022/08/05 09:23:04;;;;;;;;;;;;;;;21.22;68.62;101765.13;5094609;28;19919;-36
2022/08/05 09:25:29;;;;;;;;;;;;;;;21.07;69.45;101779.72;5094275;28;19916;-36
2022/08/05 09:27:54;;;;;;;;;;;;;;;21.04;69.29;101777.56;5095286;28;20388;-37
2022/08/05 09:30:20;;;;;;;;;;;;;;;21.05;69.53;101785.53;5094078;28;20347;-37
2022/08/05 09:32:45;;;;;;;;;;;;;;;21.27;69.78;101776.09;5094590;28;20314;-36
2022/08/05 09:35:11;;;;;;;;;;;;;;;21.49;69.20;101773.03;5095066;28;19951;-36
2022/08/05 09:37:37;;;;;;;;;;;;;;;21.58;68.74;101782.34;5094663;28;19919;-37
2022/08/05 09:40:02;;;;;;;;;;;;;;;21.84;66.58;101778.34;5095427;28;19912;-36
2022/08/05 09:42:37;;;;;;;;;;;;;;;22.09;65.92;101777.38;5094243;28;19912;-37
2022/08/05 09:45:05;;;;;;;;;;;;;;;22.20;65.58;101775.38;5094271;28;19923;-36
2022/08/05 09:47:30;;;;;;;;;;;;;;;22.37;63.99;101780.50;5094441;28;19920;-36
2022/08/05 09:49:56;;;;;;;;;;;;;;;22.57;65.66;101780.34;5094167;28;20261;-37
2022/08/05 09:52:23;;;;;;;;;;;;;;;22.90;63.33;101777.88;5094327;28;19912;-37
2022/08/05 09:55:03;;;;;;;;;;;;;;;23.10;60.09;101782.34;5094454;28;19995;-37
2022/08/05 09:57:33;;;;;;;;;;;;;;;23.22;59.95;101782.72;5094343;28;19923;-37
2022/08/05 10:00:19;;;;;;;;;;;;;;;23.45;58.72;101783.03;5094717;28;19997;-36
2022/08/05 10:02:48;;;;;;;;;;;;;;;23.51;59.87;101790.13;5093956;28;20377;-36
2022/08/05 10:05:15;;;;;;;;;;;;;;;23.76;60.31;101787.06;5093926;28;19912;-36
2022/08/05 10:07:44;;;;;;;;;;;;;;;23.92;54.11;101781.34;5093881;28;20399;-36
2022/08/05 10:10:09;;;;;;;;;;;;;;;23.82;56.26;101787.84;5094451;28;19916;-36
2022/08/05 10:13:03;;;;;;;;;;;;;;;23.69;54.23;101794.91;5094138;28;19919;-36
2022/08/05 10:15:33;;;;;;;;;;;;;;;23.52;51.61;101792.63;5071422;28;19916;-36
2022/08/05 10:18:14;;;;;;;;;;;;;;;23.47;51.92;101789.06;5071668;28;20006;-36
2022/08/05 10:20:46;;;;;;;;;;;;;;;23.70;49.70;101801.22;5071544;28;19931;-36
2022/08/05 10:23:12;;;;;;;;;;;;;;;23.90;50.38;101803.72;5071219;28;19912;-37
2022/08/05 10:25:38;;;;;;;;;;;;;;;23.88;49.31;101800.44;5071922;28;19935;-37
2022/08/05 10:28:04;;;;;;;;;;;;;;;23.88;50.97;101801.25;5071731;28;20364;-36
2022/08/05 10:30:29;;;;;;;;;;;;;;;23.83;50.94;101803.28;5071298;28;19931;-37
2022/08/05 10:32:56;;;;;;;;;;;;;;;23.76;50.15;101809.16;5071647;28;20011;-37
2022/08/05 10:35:22;;;;;;;;;;;;;;;23.75;49.58;101801.16;5071466;28;19963;-37
2022/08/05 10:37:47;;;;;;;;;;;;;;;23.88;51.96;101805.97;5071524;28;20380;-37
2022/08/05 10:40:18;;;;;;;;;;;;;;;23.87;50.40;101809.84;5071711;28;19940;-36
2022/08/05 10:42:46;;;;;;;;;;;;;;;23.82;50.69;101809.94;5071872;28;20006;-37
2022/08/05 10:45:13;;;;;;;;;;;;;;;23.84;49.63;101808.50;5055068;28;19935;-37
2022/08/05 10:47:43;;;;;;;;;;;;;;;24.05;50.47;101811.78;5071016;28;19917;-37
2022/08/05 10:50:12;;;;;;;;;;;;;;;24.12;44.62;101823.28;5071296;28;19979;-37
2022/08/05 10:52:58;;;;;;;;;;;;;;;24.36;48.56;101822.44;5089432;28;19912;-36
2022/08/05 10:55:24;;;;;;;;;;;;;;;24.48;45.39;101824.72;5094322;28;19942;-37
2022/08/05 10:58:05;;;;;;;;;;;;;;;24.50;44.64;101823.31;5094032;28;19912;-37
2022/08/05 11:00:30;;;;;;;;;;;;;;;24.51;43.83;101833.25;5093738;28;20036;-37
2022/08/05 11:03:04;;;;;;;;;;;;;;;24.45;42.81;101830.84;5093225;28;20387;-36
2022/08/05 11:05:30;;;;;;;;;;;;;;;24.52;43.20;101834.88;5094120;28;19912;-37
2022/08/05 11:07:56;;;;;;;;;;;;;;;24.66;45.93;101829.41;5093827;28;19922;-37
2022/08/05 11:10:22;;;;;;;;;;;;;;;24.74;43.62;101838.94;5093701;28;20360;-37
2022/08/05 11:12:47;;;;;;;;;;;;;;;24.73;45.92;101837.28;5093438;28;20313;-37
2022/08/05 11:15:16;;;;;;;;;;;;;;;24.69;45.07;101847.31;5093313;28;19919;-37
2022/08/05 11:17:43;;;;;;;;;;;;;;;24.57;43.81;101842.25;5093290;28;19943;-36
2022/08/05 11:20:28;;;;;;;;;;;;;;;24.57;44.08;101845.03;5093428;28;19912;-37
2022/08/05 11:22:54;;;;;;;;;;;;;;;24.67;42.46;101850.38;5093716;28;20011;-37
2022/08/05 11:25:39;;;;;;;;;;;;;;;24.71;39.77;101851.44;5093023;28;20347;-37
2022/08/05 11:28:10;;;;;;;;;;;;;;;24.49;42.09;101856.75;5093119;28;20272;-37
2022/08/05 11:30:54;;;;;;;;;;;;;;;24.54;40.05;101856.69;5093008;28;19952;-37
2022/08/05 11:33:29;;;;;;;;;;;;;;;24.53;39.97;101857.81;5092874;28;19923;-36
2022/08/05 11:35:58;;;;;;;;;;;;;;;24.41;40.98;101863.81;5093521;28;20011;-37
2022/08/05 11:38:42;;;;;;;;;;;;;;;24.40;42.32;101865.75;5092801;28;19913;-37
2022/08/05 11:41:07;;;;;;;;;;;;;;;24.40;43.82;101860.22;5093219;28;19918;-37
2022/08/05 11:43:32;;;;;;;;;;;;;;;24.34;42.85;101869.66;5093321;28;19912;-37
2022/08/05 11:45:58;;;;;;;;;;;;;;;24.19;43.52;101882.88;5093026;28;19916;-37
2022/08/05 11:48:24;;;;;;;;;;;;;;;23.88;43.70;101881.38;5094031;28;19951;-36
2022/08/05 11:50:50;;;;;;;;;;;;;;;23.69;45.51;101885.19;5083565;28;19970;-36
2022/08/05 11:53:16;;;;;;;;;;;;;;;23.44;45.30;101884.34;5081422;28;19916;-37
2022/08/05 11:55:57;;;;;;;;;;;;;;;23.43;45.50;101896.50;5096600;28;19912;-37
2022/08/05 11:58:30;;;;;;;;;;;;;;;23.33;46.18;101894.66;5096749;28;19987;-37
2022/08/05 12:01:01;;;;;;;;;;;;;;;23.23;46.07;101905.81;5097034;28;19920;-37
2022/08/05 12:03:26;;;;;;;;;;;;;;;23.29;46.43;101912.91;5097265;28;19912;-36
2022/08/05 12:05:52;;;;;;;;;;;;;;;23.39;46.26;101903.72;5076380;28;20312;-36
2022/08/05 12:08:19;;;;;;;;;;;;;;;23.56;46.51;101912.34;5109379;28;19919;-36
2022/08/05 12:10:45;;;;;;;;;;;;;;;23.66;45.58;101907.88;5076454;28;20118;-36
2022/08/05 12:13:10;;;;;;;;;;;;;;;23.68;44.07;101919.47;5076047;28;20043;-36
2022/08/05 12:15:35;;;;;;;;;;;;;;;23.88;46.67;101908.97;5079597;28;19912;-36
2022/08/05 12:18:00;;;;;;;;;;;;;;;23.98;46.66;101921.03;5096838;28;19912;-36
2022/08/05 12:20:29;;;;;;;;;;;;;;;23.97;45.42;101931.25;5095608;28;20360;-36
2022/08/05 12:23:06;;;;;;;;;;;;;;;23.85;43.82;101933.59;5096919;28;19933;-36
2022/08/05 12:25:47;;;;;;;;;;;;;;;23.47;43.05;101943.66;5080789;28;19965;-36
2022/08/05 12:28:12;;;;;;;;;;;;;;;23.39;43.87;101942.34;5075568;28;20019;-36
2022/08/05 12:30:37;;;;;;;;;;;;;;;23.60;44.31;101938.25;5076077;28;20301;-36
2022/08/05 12:33:02;;;;;;;;;;;;;;;23.72;41.16;101942.59;5075459;28;19920;-36
2022/08/05 12:35:28;;;;;;;;;;;;;;;23.83;42.14;101947.72;5089520;28;19939;-37
2022/08/05 12:37:53;;;;;;;;;;;;;;;23.83;41.93;101947.72;5096486;28;19919;-37
2022/08/05 12:40:23;;;;;;;;;;;;;;;23.76;40.31;101954.69;5095482;28;19934;-37